createdAt,value
2023-04-05T00:03:12.770Z,10.50
2023-04-05T00:07:16.609Z,10.50
2023-04-05T00:11:16.478Z,10.40
2023-04-05T00:15:15.067Z,11.40
2023-04-05T00:19:16.374Z,11.20
2023-04-05T00:23:19.007Z,10.70
2023-04-05T00:27:17.317Z,10.20
2023-04-05T00:31:20.171Z,10.80
2023-04-05T00:35:19.482Z,10.40
2023-04-05T00:39:20.526Z,10.70
2023-04-05T00:43:24.115Z,10.40
2023-04-05T00:47:23.565Z,10.40
2023-04-05T00:51:27.038Z,10.50
2023-04-05T00:55:26.550Z,10.40
2023-04-05T00:59:30.769Z,10.70
2023-04-05T01:03:30.556Z,11.70
2023-04-05T01:07:33.995Z,11.70
2023-04-05T01:11:33.776Z,10.90
2023-04-05T01:15:37.286Z,10.00
2023-04-05T01:19:36.663Z,11.20
2023-04-05T01:23:39.618Z,12.30
2023-04-05T01:27:39.560Z,11.20
2023-04-05T01:31:42.688Z,10.90
2023-04-05T01:35:41.678Z,10.50
2023-04-05T01:39:45.111Z,12.00
2023-04-05T01:43:44.716Z,11.20
2023-04-05T01:47:48.185Z,10.50
2023-04-05T01:51:54.384Z,13.00
2023-04-05T01:55:54.712Z,11.90
2023-04-05T01:59:57.606Z,10.10
2023-04-05T02:03:57.870Z,9.70
2023-04-05T02:08:02.304Z,11.40
2023-04-05T02:12:03.002Z,10.80
2023-04-05T02:16:06.794Z,10.60
2023-04-05T02:20:06.637Z,10.70
2023-04-05T02:24:10.323Z,11.00
2023-04-05T02:28:11.870Z,11.20
2023-04-05T02:32:14.680Z,12.60
2023-04-05T02:36:18.749Z,11.90
2023-04-05T02:40:21.780Z,10.90
2023-04-05T02:44:21.892Z,11.70
2023-04-05T02:48:29.712Z,12.70
2023-04-05T02:52:29.636Z,14.40
2023-04-05T02:56:32.726Z,12.90
2023-04-05T03:00:32.713Z,12.10
2023-04-05T03:04:36.247Z,11.10
2023-04-05T03:08:35.907Z,12.70
2023-04-05T03:12:39.309Z,10.60
2023-04-05T03:16:40.331Z,10.00
2023-04-05T03:20:53.427Z,9.90
2023-04-05T03:24:54.818Z,9.90
2023-04-05T03:28:57.884Z,11.30
2023-04-05T03:33:02.992Z,11.70
2023-04-05T03:37:27.297Z,11.40
2023-04-05T03:41:38.992Z,10.30
2023-04-05T03:45:42.459Z,10.10
2023-04-05T03:49:41.903Z,10.60
2023-04-05T03:53:45.488Z,10.00
2023-04-05T03:57:45.772Z,11.70
2023-04-05T04:01:57.962Z,10.10
2023-04-05T04:05:57.910Z,9.40
2023-04-05T04:10:01.306Z,10.20
2023-04-05T04:14:00.696Z,10.30
2023-04-05T04:18:13.000Z,8.90
2023-04-05T04:22:32.976Z,9.00
2023-04-05T04:26:50.274Z,9.80
2023-04-05T04:31:08.889Z,13.50
2023-04-05T04:35:51.236Z,11.00
2023-04-05T04:40:24.292Z,9.20
2023-04-05T04:44:55.509Z,8.60
2023-04-05T04:48:59.980Z,9.00
2023-04-05T04:53:07.279Z,9.20
2023-04-05T04:57:07.125Z,9.10
2023-04-05T05:01:07.574Z,9.00
2023-04-05T05:05:06.383Z,9.10
2023-04-05T05:09:05.514Z,9.60
2023-04-05T05:12:58.178Z,8.50
2023-04-05T05:16:45.039Z,8.70
2023-04-05T05:20:33.651Z,10.10
2023-04-05T05:24:20.253Z,9.70
2023-04-05T05:28:12.741Z,10.30
2023-04-05T05:32:06.217Z,9.80
2023-04-05T05:36:02.917Z,6.50
2023-04-05T05:40:03.540Z,8.50
2023-04-05T05:44:00.426Z,9.80
2023-04-05T05:48:01.368Z,9.00
2023-04-05T05:51:58.077Z,9.40
2023-04-05T05:55:59.131Z,9.50
2023-04-05T05:59:55.094Z,9.90
2023-04-05T06:03:58.200Z,9.90
2023-04-05T06:07:55.430Z,8.10
2023-04-05T06:11:57.165Z,8.80
2023-04-05T06:15:52.254Z,8.40
2023-04-05T06:19:53.188Z,8.40
2023-04-05T06:23:57.204Z,8.00
2023-04-05T06:27:54.342Z,8.00
2023-04-05T06:31:55.168Z,7.70
2023-04-05T06:35:48.122Z,7.80
2023-04-05T06:43:21.855Z,7.40
2023-04-05T06:50:54.309Z,6.60
2023-04-05T06:54:54.857Z,7.60
2023-04-05T06:58:49.387Z,7.30
2023-04-05T07:02:49.777Z,8.10
2023-04-05T07:06:46.335Z,7.80
2023-04-05T07:10:47.876Z,6.80
2023-04-05T07:14:44.387Z,7.40
2023-04-05T07:18:45.840Z,7.20
2023-04-05T07:22:42.410Z,7.20
2023-04-05T07:26:37.404Z,6.90
2023-04-05T07:30:41.159Z,6.70
2023-04-05T07:34:38.291Z,6.80
2023-04-05T07:38:41.878Z,6.60
2023-04-05T07:42:39.614Z,6.90
2023-04-05T07:46:40.572Z,6.00
2023-04-05T07:50:37.575Z,5.70
2023-04-05T07:54:31.890Z,6.10
2023-04-05T07:58:28.610Z,5.00
2023-04-05T08:02:23.013Z,5.60
2023-04-05T08:06:19.458Z,5.50
2023-04-05T08:10:14.217Z,6.50
2023-04-05T08:14:12.873Z,6.30
2023-04-05T08:18:18.600Z,5.80
2023-04-05T08:22:11.639Z,6.40
2023-04-05T08:26:12.495Z,5.50
2023-04-05T08:30:09.669Z,7.10
2023-04-05T08:34:11.616Z,6.90
2023-04-05T08:38:11.809Z,7.60
2023-04-05T08:42:12.566Z,7.40
2023-04-05T08:46:09.681Z,5.90
2023-04-05T08:50:10.319Z,6.00
2023-04-05T08:53:57.602Z,6.10
2023-04-05T08:57:44.163Z,5.50
2023-04-05T09:01:30.774Z,5.80
2023-04-05T09:05:17.457Z,8.10
2023-04-05T09:09:03.895Z,6.70
2023-04-05T09:12:56.688Z,6.10
2023-04-05T09:16:51.533Z,5.70
2023-04-05T09:20:52.372Z,5.80
2023-04-05T09:24:50.106Z,6.10
2023-04-05T09:28:54.396Z,6.00
2023-04-05T09:32:51.677Z,6.70
2023-04-05T09:36:52.956Z,6.00
2023-04-05T09:40:49.565Z,5.80
2023-04-05T09:44:56.657Z,6.20
2023-04-05T09:48:50.217Z,6.20
2023-04-05T09:52:36.567Z,6.20
2023-04-05T09:56:33.300Z,7.80
2023-04-05T10:00:38.924Z,6.50
2023-04-05T10:04:36.791Z,6.60
2023-04-05T10:08:35.520Z,6.60
2023-04-05T10:12:32.250Z,6.90
2023-04-05T10:16:33.607Z,6.90
2023-04-05T10:20:30.535Z,7.00
2023-04-05T10:24:32.278Z,7.80
2023-04-05T10:28:34.273Z,7.70
2023-04-05T10:32:31.191Z,7.50
2023-04-05T10:36:31.926Z,6.60
2023-04-05T10:40:28.875Z,7.30
2023-04-05T10:44:29.959Z,7.00
2023-04-05T10:48:27.167Z,7.60
2023-04-05T10:52:29.335Z,7.10
2023-04-05T10:56:25.621Z,8.00
2023-04-05T11:00:26.280Z,7.20
2023-04-05T11:04:23.686Z,5.90
2023-04-05T11:08:24.703Z,6.70
2023-04-05T11:12:29.638Z,6.50
2023-04-05T11:16:26.662Z,7.10
2023-04-05T11:20:27.979Z,7.00
2023-04-05T11:24:24.757Z,6.90
2023-04-05T11:28:25.548Z,5.30
2023-04-05T11:32:22.685Z,6.10
2023-04-05T11:36:23.252Z,5.70
2023-04-05T11:40:19.509Z,6.40
2023-04-05T11:44:20.507Z,5.50
2023-04-05T11:48:17.562Z,5.40
2023-04-05T11:52:18.235Z,5.70
2023-04-05T11:56:15.184Z,5.60
2023-04-05T12:00:15.955Z,5.30
2023-04-05T12:04:32.771Z,6.00
2023-04-05T12:08:33.686Z,5.60
2023-04-05T12:12:31.018Z,5.20
2023-04-05T12:16:31.833Z,5.00
2023-04-05T12:20:28.662Z,4.50
2023-04-05T12:24:29.240Z,5.40
2023-04-05T12:28:30.047Z,5.30
2023-04-05T12:32:26.716Z,5.40
2023-04-05T12:36:25.266Z,5.70
2023-04-05T12:40:25.985Z,5.70
2023-04-05T12:44:26.918Z,4.80
2023-04-05T12:48:24.227Z,5.00
2023-04-05T12:52:24.764Z,4.60
2023-04-05T12:56:11.533Z,5.30
2023-04-05T12:59:59.211Z,4.80
2023-04-05T13:03:46.368Z,5.40
2023-04-05T13:07:34.875Z,5.30
2023-04-05T13:11:20.901Z,4.50
2023-04-05T13:15:17.712Z,4.70
2023-04-05T13:19:12.525Z,5.30
2023-04-05T13:23:13.343Z,4.70
2023-04-05T13:27:09.949Z,5.10
2023-04-05T13:31:10.782Z,4.50
2023-04-05T13:35:07.884Z,4.50
2023-04-05T13:39:08.270Z,4.70
2023-04-05T13:43:05.086Z,4.50
2023-04-05T13:47:06.292Z,4.90
2023-04-05T13:51:03.096Z,5.00
2023-04-05T13:54:49.412Z,4.30
2023-04-05T13:58:49.217Z,4.40
2023-04-05T14:02:35.791Z,4.30
2023-04-05T14:06:27.910Z,4.10
2023-04-05T14:10:21.053Z,4.30
2023-04-05T14:14:13.755Z,4.90
2023-04-05T14:18:14.255Z,4.90
2023-04-05T14:22:12.254Z,5.00
2023-04-05T14:26:13.868Z,4.30
2023-04-05T14:30:10.033Z,4.90
2023-04-05T14:34:10.822Z,5.40
2023-04-05T14:38:10.353Z,4.90
2023-04-05T14:42:11.771Z,5.00
2023-04-05T14:46:02.743Z,4.80
2023-04-05T14:49:49.569Z,6.10
2023-04-05T14:53:36.278Z,6.40
2023-04-05T14:57:22.378Z,19.30
2023-04-05T15:01:08.685Z,10.70
2023-04-05T15:04:55.273Z,6.40
2023-04-05T15:08:47.639Z,8.80
2023-04-05T15:12:44.075Z,7.10
2023-04-05T15:16:41.597Z,5.70
2023-04-05T15:20:42.810Z,5.80
2023-04-05T15:24:40.187Z,5.70
2023-04-05T15:28:41.495Z,5.70
2023-04-05T15:32:37.783Z,5.50
2023-04-05T15:36:37.801Z,7.80
2023-04-05T15:40:38.302Z,6.70
2023-04-05T15:44:43.217Z,6.90
2023-04-05T15:48:29.931Z,6.20
2023-04-05T15:52:16.714Z,6.00
2023-04-05T15:56:03.595Z,6.20
2023-04-05T15:59:50.104Z,5.80
2023-04-05T16:04:04.711Z,5.90
2023-04-05T16:08:11.313Z,5.40
2023-04-05T16:12:08.344Z,5.30
2023-04-05T16:16:09.880Z,6.10
2023-04-05T16:20:07.091Z,6.90
2023-04-05T16:24:08.751Z,6.00
2023-04-05T16:28:05.358Z,5.40
2023-04-05T16:32:03.606Z,5.00
2023-04-05T16:35:56.266Z,5.20
2023-04-05T16:39:59.571Z,5.80
2023-04-05T16:43:54.534Z,6.00
2023-04-05T16:48:01.994Z,5.40
2023-04-05T16:52:01.288Z,4.80
2023-04-05T16:56:04.116Z,8.00
2023-04-05T17:00:04.321Z,6.00
2023-04-05T17:04:26.756Z,5.00
2023-04-05T17:08:30.275Z,4.90
2023-04-05T17:12:33.953Z,4.40
2023-04-05T17:16:36.237Z,4.50
2023-04-05T17:20:39.282Z,4.80
2023-04-05T17:24:39.372Z,4.90
2023-04-05T17:28:46.345Z,5.00
2023-04-05T17:32:49.323Z,4.50
2023-04-05T17:36:52.195Z,5.20
2023-04-05T17:40:52.229Z,5.00
2023-04-05T17:44:56.829Z,5.60
2023-04-05T17:48:55.287Z,6.90
2023-04-05T17:52:56.118Z,6.70
2023-04-05T17:56:53.588Z,7.40
2023-04-05T18:00:39.978Z,6.70
2023-04-05T18:04:26.710Z,5.20
2023-04-05T18:08:18.876Z,6.80
2023-04-05T18:12:13.684Z,6.90
2023-04-05T18:16:14.136Z,5.60
2023-04-05T18:20:11.548Z,5.10
2023-04-05T18:24:15.489Z,7.40
2023-04-05T18:28:21.931Z,6.30
2023-04-05T18:32:23.694Z,6.50
2023-04-05T18:36:20.390Z,6.40
2023-04-05T18:40:21.847Z,5.80
2023-04-05T18:44:10.854Z,5.10
2023-04-05T18:47:57.833Z,5.60
2023-04-05T18:51:44.011Z,6.10
2023-04-05T18:55:32.830Z,5.70
2023-04-05T18:59:19.903Z,6.10
2023-04-05T19:03:11.930Z,5.90
2023-04-05T19:07:04.528Z,4.40
2023-04-05T19:10:58.241Z,4.90
2023-04-05T19:14:59.052Z,5.40
2023-04-05T19:18:56.590Z,4.90
2023-04-05T19:23:01.111Z,5.60
2023-04-05T19:26:57.417Z,5.10
2023-04-05T19:30:58.191Z,5.30
2023-04-05T19:34:55.520Z,5.60
2023-04-05T19:38:57.355Z,6.10
2023-04-05T19:42:51.936Z,5.70
2023-04-05T19:46:38.189Z,5.60
2023-04-05T19:50:36.707Z,5.80
2023-04-05T19:54:26.691Z,5.50
2023-04-05T19:58:15.816Z,6.60
2023-04-05T20:02:03.971Z,6.00
2023-04-05T20:05:50.260Z,7.20
2023-04-05T20:09:43.747Z,6.30
2023-04-05T20:13:44.726Z,6.90
2023-04-05T20:17:41.707Z,6.80
2023-04-05T20:21:45.216Z,6.70
2023-04-05T20:25:41.509Z,6.50
2023-04-05T20:29:42.758Z,6.20
2023-04-05T20:33:42.843Z,6.30
2023-04-05T20:37:41.421Z,6.50
2023-04-05T20:41:45.377Z,7.90
2023-04-05T20:45:47.557Z,6.80
2023-04-05T20:49:48.162Z,7.10
2023-04-05T20:53:48.675Z,7.40
2023-04-05T20:57:54.688Z,7.10
2023-04-05T21:01:54.753Z,7.00
2023-04-05T21:05:56.383Z,6.90
2023-04-05T21:09:55.524Z,6.00
2023-04-05T21:13:59.613Z,4.90
2023-04-05T21:17:56.796Z,5.70
2023-04-05T21:21:59.086Z,5.30
2023-04-05T21:25:55.676Z,5.70
2023-04-05T21:29:58.599Z,4.50
2023-04-05T21:33:53.350Z,6.50
2023-04-05T21:37:57.817Z,5.80
2023-04-05T21:42:00.629Z,4.50
2023-04-05T21:46:03.747Z,5.50
2023-04-05T21:50:02.592Z,4.10
2023-04-05T21:54:05.796Z,4.00
2023-04-05T21:58:02.764Z,3.70
2023-04-05T22:02:00.960Z,3.40
2023-04-05T22:05:55.643Z,3.40
2023-04-05T22:10:01.782Z,3.80
2023-04-05T22:14:02.857Z,3.70
2023-04-05T22:18:05.180Z,2.90
2023-04-05T22:22:03.869Z,4.00
2023-04-05T22:26:04.130Z,3.20
2023-04-05T22:30:03.451Z,3.20
2023-04-05T22:34:03.111Z,3.30
2023-04-05T22:38:03.528Z,3.30
2023-04-05T22:42:06.233Z,2.90
2023-04-05T22:46:02.916Z,2.90
2023-04-05T22:50:06.908Z,2.50
2023-04-05T22:57:48.768Z,2.90
2023-04-05T23:01:49.680Z,2.60
2023-04-05T23:05:44.591Z,3.00
2023-04-05T23:09:51.452Z,2.60
2023-04-05T23:13:50.783Z,3.10
2023-04-05T23:17:53.811Z,3.30
2023-04-05T23:21:50.852Z,3.00
2023-04-05T23:25:54.757Z,3.30
2023-04-05T23:29:54.967Z,3.00
2023-04-05T23:33:53.896Z,3.00
2023-04-05T23:37:50.933Z,3.20
2023-04-05T23:42:00.518Z,3.00
2023-04-05T23:45:58.813Z,2.80
2023-04-05T23:50:01.888Z,2.60
2023-04-05T23:54:00.799Z,2.70
2023-04-05T23:58:03.336Z,2.40
